Time;durP1;ratioP1;P1;durP2;ratioP2;P2;SDS_P1;SDS_P2;PMS_P1;PMS_P2;Temp;Humidity;BMP_temperature;BMP_pressure;BME280_temperature;BME280_humidity;BME280_pressure;Samples;Min_cycle;Max_cycle;Signal;HPM_P1;HPM_P2
2024/02/15 00:02:05;;;;;;;12.93;6.13;;;;;;;;;;10335741;28;20113;-60
2024/02/15 00:07:06;;;;;;;10.35;5.63;;;;;;;;;;10323575;28;20037;-59
2024/02/15 00:12:07;;;;;;;9.88;5.75;;;;;;;;;;10325204;28;20458;-60
2024/02/15 00:17:08;;;;;;;10.70;5.53;;;;;;;;;;10316769;28;20034;-59
2024/02/15 00:22:09;;;;;;;16.02;6.68;;;;;;;;;;10320239;28;20046;-60
2024/02/15 00:27:10;;;;;;;11.18;6.10;;;;;;;;;;10320477;28;20030;-60
2024/02/15 00:32:11;;;;;;;10.65;5.35;;;;;;;;;;10323041;28;20030;-60
2024/02/15 00:37:12;;;;;;;10.75;4.97;;;;;;;;;;10322271;28;20378;-60
2024/02/15 00:42:12;;;;;;;10.85;5.80;;;;;;;;;;10319550;28;20054;-59
2024/02/15 00:47:13;;;;;;;9.20;5.15;;;;;;;;;;10317272;28;20034;-60
2024/02/15 00:52:14;;;;;;;10.07;5.43;;;;;;;;;;10318800;28;20101;-60
2024/02/15 00:57:14;;;;;;;10.40;5.78;;;;;;;;;;10320224;28;20038;-60
2024/02/15 01:02:15;;;;;;;13.10;5.50;;;;;;;;;;10322164;28;20038;-60
2024/02/15 01:07:15;;;;;;;10.65;5.55;;;;;;;;;;10316989;28;20030;-60
2024/02/15 01:12:16;;;;;;;12.75;5.85;;;;;;;;;;10321012;28;20030;-60
2024/02/15 01:17:17;;;;;;;11.25;5.22;;;;;;;;;;10310067;28;20030;-60
2024/02/15 01:22:17;;;;;;;9.23;5.45;;;;;;;;;;10320195;28;20030;-59
2024/02/15 01:27:18;;;;;;;9.35;5.50;;;;;;;;;;10308969;28;20499;-59
2024/02/15 01:32:19;;;;;;;7.85;5.38;;;;;;;;;;10319691;28;20053;-60
2024/02/15 01:37:21;;;;;;;10.35;5.35;;;;;;;;;;10328186;28;20501;-60
2024/02/15 01:42:21;;;;;;;7.78;4.85;;;;;;;;;;10324504;28;20054;-60
2024/02/15 01:47:22;;;;;;;15.88;5.70;;;;;;;;;;10316806;28;20034;-61
2024/02/15 01:52:23;;;;;;;7.32;4.80;;;;;;;;;;10324119;28;20032;-59
2024/02/15 01:57:24;;;;;;;7.57;4.88;;;;;;;;;;10324726;28;20022;-60
2024/02/15 02:02:28;;;;;;;10.23;5.05;;;;;;;;;;10322948;28;20034;-60
2024/02/15 02:07:29;;;;;;;9.88;5.18;;;;;;;;;;10321334;28;20033;-60
2024/02/15 02:12:31;;;;;;;8.25;5.55;;;;;;;;;;10329754;28;20061;-59
2024/02/15 02:17:31;;;;;;;8.50;5.60;;;;;;;;;;10327130;28;20394;-59
2024/02/15 02:22:32;;;;;;;8.75;4.78;;;;;;;;;;10318978;28;20060;-59
2024/02/15 02:27:33;;;;;;;6.05;4.70;;;;;;;;;;10312602;28;20037;-59
2024/02/15 02:32:36;;;;;;;7.60;4.70;;;;;;;;;;10326575;28;20061;-59
2024/02/15 02:37:37;;;;;;;7.15;4.85;;;;;;;;;;10323461;28;20077;-60
2024/02/15 02:42:52;;;;;;;7.50;5.15;;;;;;;;;;10324887;28;20034;-60
2024/02/15 02:47:54;;;;;;;6.65;4.30;;;;;;;;;;10324044;28;20125;-59
2024/02/15 02:52:54;;;;;;;8.40;4.97;;;;;;;;;;10327111;28;20474;-60
2024/02/15 02:57:55;;;;;;;10.25;5.18;;;;;;;;;;10320935;28;20041;-59
2024/02/15 03:02:56;;;;;;;8.00;5.05;;;;;;;;;;10317897;28;20030;-60
2024/02/15 03:07:57;;;;;;;6.45;4.53;;;;;;;;;;10326155;28;20080;-60
2024/02/15 03:12:57;;;;;;;6.57;4.75;;;;;;;;;;10326474;28;20552;-60
2024/02/15 03:17:58;;;;;;;7.55;4.68;;;;;;;;;;10323227;28;20026;-60
2024/02/15 03:23:00;;;;;;;7.15;4.50;;;;;;;;;;10322387;28;20023;-59
2024/02/15 03:28:04;;;;;;;7.63;4.28;;;;;;;;;;10327414;28;20393;-59
2024/02/15 03:33:05;;;;;;;6.22;4.40;;;;;;;;;;10325408;28;20026;-59
2024/02/15 03:38:06;;;;;;;6.95;4.82;;;;;;;;;;10326257;28;20129;-59
2024/02/15 03:43:08;;;;;;;4.70;4.20;;;;;;;;;;10321952;28;20457;-60
2024/02/15 03:48:09;;;;;;;10.20;4.53;;;;;;;;;;10325059;28;20113;-61
2024/02/15 03:53:13;;;;;;;7.18;4.78;;;;;;;;;;10320237;28;20042;-60
2024/02/15 03:58:14;;;;;;;5.75;4.25;;;;;;;;;;10323526;28;20057;-61
2024/02/15 04:03:15;;;;;;;6.47;4.38;;;;;;;;;;10320830;28;20038;-61
2024/02/15 04:08:16;;;;;;;7.88;4.68;;;;;;;;;;10313287;28;20022;-60
2024/02/15 04:13:17;;;;;;;5.25;4.00;;;;;;;;;;10307654;28;20034;-60
2024/02/15 04:18:18;;;;;;;7.25;4.53;;;;;;;;;;10322948;28;20037;-60
2024/02/15 04:23:19;;;;;;;6.00;4.25;;;;;;;;;;10321319;28;20041;-59
2024/02/15 04:28:20;;;;;;;7.20;4.50;;;;;;;;;;10312245;28;20118;-59
2024/02/15 04:33:20;;;;;;;7.32;4.55;;;;;;;;;;10314020;28;20533;-59
2024/02/15 04:38:21;;;;;;;8.18;4.32;;;;;;;;;;10319881;28;20389;-61
2024/02/15 04:43:22;;;;;;;6.32;4.60;;;;;;;;;;10323614;28;20544;-60
2024/02/15 04:48:24;;;;;;;5.05;3.97;;;;;;;;;;10311733;28;20513;-59
2024/02/15 04:53:25;;;;;;;5.85;4.30;;;;;;;;;;10322963;28;20598;-59
2024/02/15 04:58:26;;;;;;;5.03;3.92;;;;;;;;;;10312964;28;20269;-60
2024/02/15 05:03:27;;;;;;;5.45;4.07;;;;;;;;;;10318606;28;20077;-60
2024/02/15 05:08:31;;;;;;;6.00;4.18;;;;;;;;;;10316422;28;20030;-60
2024/02/15 05:13:32;;;;;;;4.82;3.92;;;;;;;;;;10326755;28;20023;-59
2024/02/15 05:18:35;;;;;;;10.93;4.15;;;;;;;;;;10325500;28;20088;-60
2024/02/15 05:23:36;;;;;;;7.15;3.85;;;;;;;;;;10327190;28;20030;-60
2024/02/15 05:28:37;;;;;;;9.75;4.40;;;;;;;;;;10326484;28;20105;-59
2024/02/15 05:33:43;;;;;;;4.70;3.85;;;;;;;;;;10328827;28;20029;-59
2024/02/15 05:38:45;;;;;;;4.35;3.53;;;;;;;;;;10325787;28;20096;-60
2024/02/15 05:43:46;;;;;;;5.53;4.13;;;;;;;;;;10324269;28;20382;-59
2024/02/15 05:48:47;;;;;;;5.68;3.92;;;;;;;;;;10324796;28;20034;-60
2024/02/15 05:53:49;;;;;;;5.63;3.92;;;;;;;;;;10326629;28;20030;-59
2024/02/15 05:58:49;;;;;;;5.97;4.18;;;;;;;;;;10321200;28;20034;-60
2024/02/15 06:03:54;;;;;;;5.00;4.03;;;;;;;;;;10318918;28;20070;-60
2024/02/15 06:08:59;;;;;;;8.63;4.30;;;;;;;;;;10319479;28;20033;-61
2024/02/15 06:14:00;;;;;;;7.65;4.15;;;;;;;;;;10318116;28;20066;-60
2024/02/15 06:19:00;;;;;;;5.45;4.30;;;;;;;;;;10320084;28;20105;-60
2024/02/15 06:24:01;;;;;;;9.80;4.28;;;;;;;;;;10319317;28;20479;-60
2024/02/15 06:39:43;;;;;;;13.35;4.63;;;;;;;;;;10316542;28;20087;-60
2024/02/15 06:44:48;;;;;;;14.75;4.70;;;;;;;;;;10325255;28;20037;-60
2024/02/15 06:49:51;;;;;;;34.28;5.95;;;;;;;;;;10325889;28;20092;-60
2024/02/15 06:54:52;;;;;;;7.30;5.30;;;;;;;;;;10329360;28;20065;-61
2024/02/15 06:59:53;;;;;;;7.78;5.47;;;;;;;;;;10319430;28;20045;-60
2024/02/15 07:04:54;;;;;;;21.63;6.32;;;;;;;;;;10329441;28;20403;-63
2024/02/15 07:09:54;;;;;;;9.82;5.78;;;;;;;;;;10307271;28;20494;-62
2024/02/15 07:14:56;;;;;;;19.73;6.93;;;;;;;;;;10318339;28;20030;-63
2024/02/15 07:19:56;;;;;;;19.80;7.22;;;;;;;;;;10311963;28;20548;-62
2024/02/15 07:24:57;;;;;;;18.20;6.88;;;;;;;;;;10325671;28;20018;-62
2024/02/15 07:29:58;;;;;;;11.90;6.65;;;;;;;;;;10319746;28;20201;-63
2024/02/15 07:34:58;;;;;;;19.20;6.88;;;;;;;;;;10320260;28;20037;-62
2024/02/15 07:40:00;;;;;;;21.00;6.78;;;;;;;;;;10322455;28;20066;-62
2024/02/15 07:45:01;;;;;;;17.75;7.05;;;;;;;;;;10317311;28;20121;-62
2024/02/15 07:50:03;;;;;;;15.48;7.07;;;;;;;;;;10326533;28;20037;-62
2024/02/15 07:55:08;;;;;;;15.50;6.95;;;;;;;;;;10322382;28;20069;-61
2024/02/15 08:00:10;;;;;;;16.08;6.72;;;;;;;;;;10323700;28;20046;-62
2024/02/15 08:05:14;;;;;;;16.65;7.75;;;;;;;;;;10324989;28;20032;-62
2024/02/15 08:10:14;;;;;;;11.45;6.90;;;;;;;;;;10325352;28;20027;-64
2024/02/15 08:15:15;;;;;;;11.13;6.80;;;;;;;;;;10299152;28;20038;-63
2024/02/15 08:20:22;;;;;;;16.67;7.03;;;;;;;;;;10300157;28;20060;-62
2024/02/15 08:25:23;;;;;;;13.00;6.57;;;;;;;;;;10271341;28;20045;-65
2024/02/15 08:30:23;;;;;;;24.70;6.60;;;;;;;;;;10312376;28;20038;-62
2024/02/15 08:35:24;;;;;;;33.03;6.75;;;;;;;;;;10239397;28;20042;-63
2024/02/15 08:40:25;;;;;;;13.45;6.43;;;;;;;;;;10172248;28;20135;-62
2024/02/15 08:45:25;;;;;;;16.92;6.85;;;;;;;;;;10172210;28;20054;-62
2024/02/15 08:50:26;;;;;;;13.85;7.07;;;;;;;;;;10169403;28;20026;-62
2024/02/15 08:55:27;;;;;;;13.15;6.95;;;;;;;;;;10169766;28;20868;-62
2024/02/15 09:00:29;;;;;;;11.52;6.32;;;;;;;;;;10167641;28;20042;-62
2024/02/15 09:05:29;;;;;;;13.35;6.32;;;;;;;;;;10166653;28;20126;-62
2024/02/15 09:10:30;;;;;;;12.13;6.28;;;;;;;;;;10167641;28;20068;-63
2024/02/15 09:15:31;;;;;;;12.55;6.43;;;;;;;;;;10168239;28;20064;-63
2024/02/15 09:20:33;;;;;;;6.95;5.85;;;;;;;;;;10226350;28;20046;-62
2024/02/15 09:25:33;;;;;;;19.98;6.07;;;;;;;;;;10171787;28;20713;-62
2024/02/15 09:30:35;;;;;;;11.48;6.38;;;;;;;;;;10279312;28;20030;-62
2024/02/15 09:35:35;;;;;;;11.73;6.50;;;;;;;;;;10284949;28;20627;-62
2024/02/15 09:40:36;;;;;;;12.02;6.38;;;;;;;;;;10334741;28;20135;-62
2024/02/15 09:45:37;;;;;;;13.20;6.65;;;;;;;;;;10330363;28;20039;-62
2024/02/15 09:50:42;;;;;;;8.50;5.80;;;;;;;;;;10335998;28;20474;-62
2024/02/15 09:55:43;;;;;;;10.38;6.38;;;;;;;;;;10251004;28;20507;-65
2024/02/15 10:00:46;;;;;;;14.63;6.40;;;;;;;;;;10194544;28;21083;-62
2024/02/15 10:05:49;;;;;;;15.00;6.25;;;;;;;;;;10337547;28;20033;-61
2024/02/15 10:11:08;;;;;;;10.90;5.60;;;;;;;;;;10321526;28;20030;-62
2024/02/15 10:16:24;;;;;;;10.45;6.18;;;;;;;;;;10327965;28;20100;-62
2024/02/15 10:21:30;;;;;;;9.00;5.65;;;;;;;;;;10329592;28;20126;-62
2024/02/15 10:26:32;;;;;;;11.23;6.07;;;;;;;;;;10327147;28;20122;-62
2024/02/15 10:31:32;;;;;;;8.32;6.25;;;;;;;;;;10328069;28;20034;-62
2024/02/15 10:36:34;;;;;;;7.20;5.40;;;;;;;;;;10318076;28;20026;-62
2024/02/15 10:41:36;;;;;;;8.20;5.97;;;;;;;;;;10328719;28;20061;-62
2024/02/15 10:46:36;;;;;;;10.50;5.63;;;;;;;;;;10326784;28;20029;-61
2024/02/15 10:51:42;;;;;;;10.25;6.65;;;;;;;;;;10326534;28;20041;-63
2024/02/15 10:56:46;;;;;;;12.18;6.25;;;;;;;;;;10325170;28;20428;-62
2024/02/15 11:01:50;;;;;;;8.23;5.60;;;;;;;;;;10316104;28;20444;-62
2024/02/15 11:06:53;;;;;;;8.00;5.50;;;;;;;;;;10327124;28;20097;-63
2024/02/15 11:11:55;;;;;;;9.48;5.80;;;;;;;;;;10325897;28;20029;-62
2024/02/15 11:16:57;;;;;;;8.80;5.65;;;;;;;;;;10296822;28;20038;-62
2024/02/15 11:22:03;;;;;;;6.63;5.07;;;;;;;;;;10345035;28;20033;-62
2024/02/15 11:27:06;;;;;;;8.55;5.68;;;;;;;;;;10325793;28;20036;-62
2024/02/15 11:32:08;;;;;;;7.85;5.63;;;;;;;;;;10346798;28;20030;-61
2024/02/15 11:37:09;;;;;;;8.65;5.20;;;;;;;;;;10360955;23;20129;-59
2024/02/15 11:42:28;;;;;;;8.55;5.18;;;;;;;;;;10366907;28;20105;-59
2024/02/15 11:47:30;;;;;;;8.48;5.90;;;;;;;;;;10373567;28;20418;-59
2024/02/15 11:52:31;;;;;;;11.85;5.47;;;;;;;;;;10339898;28;20030;-62
2024/02/15 11:57:39;;;;;;;13.13;5.75;;;;;;;;;;10325023;28;20361;-62
2024/02/15 12:18:44;;;;;;;10.60;5.05;;;;;;;;;;10362281;28;20022;-62
2024/02/15 12:23:45;;;;;;;6.65;5.18;;;;;;;;;;10363978;28;20548;-62
2024/02/15 12:28:54;;;;;;;7.60;4.97;;;;;;;;;;10367089;28;20030;-62
2024/02/15 12:34:09;;;;;;;8.90;4.95;;;;;;;;;;10360279;28;20044;-60
2024/02/15 12:39:14;;;;;;;10.80;5.20;;;;;;;;;;10355400;28;20421;-61
2024/02/15 12:44:22;;;;;;;7.95;5.95;;;;;;;;;;10330428;28;20026;-60
2024/02/15 12:49:23;;;;;;;9.15;5.53;;;;;;;;;;10319525;28;20053;-59
2024/02/15 12:54:25;;;;;;;8.38;5.60;;;;;;;;;;10312429;28;20049;-59
2024/02/15 12:59:25;;;;;;;7.97;5.38;;;;;;;;;;10369452;28;20026;-60
2024/02/15 13:04:26;;;;;;;5.75;4.88;;;;;;;;;;10375827;28;20022;-60
2024/02/15 13:09:27;;;;;;;6.70;5.75;;;;;;;;;;10304397;28;20037;-60
2024/02/15 13:14:29;;;;;;;6.60;5.00;;;;;;;;;;10347627;28;20157;-60
2024/02/15 13:19:29;;;;;;;6.20;5.20;;;;;;;;;;10331046;28;20041;-59
2024/02/15 13:24:30;;;;;;;8.70;5.38;;;;;;;;;;10352712;28;20033;-60
2024/02/15 13:29:32;;;;;;;9.18;5.53;;;;;;;;;;10351273;28;20072;-59
2024/02/15 13:34:33;;;;;;;5.95;4.75;;;;;;;;;;10369386;28;20116;-57
2024/02/15 13:39:34;;;;;;;9.68;5.38;;;;;;;;;;10340183;28;20374;-59
2024/02/15 13:44:34;;;;;;;7.18;4.82;;;;;;;;;;10368199;28;20447;-59
2024/02/15 13:49:35;;;;;;;7.57;4.93;;;;;;;;;;10356342;28;20061;-61
2024/02/15 13:54:35;;;;;;;7.13;5.00;;;;;;;;;;10365145;28;20142;-62
2024/02/15 13:59:36;;;;;;;8.25;5.10;;;;;;;;;;10367967;28;20025;-61
2024/02/15 14:04:36;;;;;;;10.30;5.25;;;;;;;;;;10365941;28;20030;-62
2024/02/15 14:09:37;;;;;;;6.82;5.13;;;;;;;;;;10329602;28;20045;-62
2024/02/15 14:14:40;;;;;;;5.60;4.55;;;;;;;;;;10305285;28;20546;-60
2024/02/15 14:19:40;;;;;;;8.73;5.20;;;;;;;;;;10216959;28;20084;-62
2024/02/15 14:24:44;;;;;;;5.63;4.40;;;;;;;;;;10228313;28;20038;-61
2024/02/15 14:32:59;;;;;;;10.70;5.32;;;;;;;;;;10353030;28;20034;-62
2024/02/15 14:35:06;;;;;;;7.47;4.60;;;;;;;;;;10218170;28;20085;-62
2024/02/15 14:40:07;;;;;;;7.90;4.95;;;;;;;;;;10214395;28;20149;-60
2024/02/15 14:45:11;;;;;;;7.88;5.28;;;;;;;;;;10212604;28;20481;-58
2024/02/15 14:50:13;;;;;;;9.00;5.60;;;;;;;;;;10212404;28;22518;-58
2024/02/15 14:55:14;;;;;;;8.98;5.78;;;;;;;;;;10226813;28;20065;-59
2024/02/15 15:00:17;;;;;;;8.93;5.88;;;;;;;;;;10326359;28;20034;-62
2024/02/15 15:15:56;;;;;;;22.33;6.88;;;;;;;;;;10335272;28;20121;-63
2024/02/15 15:20:58;;;;;;;22.70;6.85;;;;;;;;;;10344548;28;20120;-61
2024/02/15 15:26:00;;;;;;;31.33;6.75;;;;;;;;;;10354604;28;20038;-61
2024/02/15 15:31:00;;;;;;;20.58;6.05;;;;;;;;;;10366272;28;20033;-61
2024/02/15 15:36:01;;;;;;;21.73;6.90;;;;;;;;;;10355775;28;20045;-59
2024/02/15 15:41:03;;;;;;;20.88;6.00;;;;;;;;;;10359282;28;20262;-61
2024/02/15 15:46:04;;;;;;;27.58;6.47;;;;;;;;;;10363412;28;20084;-61
2024/02/15 15:51:06;;;;;;;13.55;6.15;;;;;;;;;;10365546;28;20018;-59
2024/02/15 15:56:06;;;;;;;12.43;5.95;;;;;;;;;;10361259;28;20084;-59
2024/02/15 16:01:13;;;;;;;11.68;6.18;;;;;;;;;;10364281;28;20120;-60
2024/02/15 16:06:14;;;;;;;16.58;6.45;;;;;;;;;;10350061;28;20486;-59
2024/02/15 16:11:16;;;;;;;16.58;5.78;;;;;;;;;;10358547;28;20030;-59
2024/02/15 16:16:17;;;;;;;14.15;6.07;;;;;;;;;;10358789;28;20072;-59
2024/02/15 16:21:18;;;;;;;12.30;5.78;;;;;;;;;;10356899;28;20068;-59
2024/02/15 16:26:20;;;;;;;14.23;5.25;;;;;;;;;;10356556;28;20061;-59
2024/02/15 16:31:21;;;;;;;10.43;6.47;;;;;;;;;;10356921;28;20038;-59
2024/02/15 16:36:22;;;;;;;12.07;6.85;;;;;;;;;;10351821;28;20046;-59
2024/02/15 16:41:24;;;;;;;10.25;6.40;;;;;;;;;;10348663;28;20069;-59
2024/02/15 16:46:25;;;;;;;13.25;6.28;;;;;;;;;;10338386;28;20022;-59
2024/02/15 16:51:26;;;;;;;9.32;5.95;;;;;;;;;;10359080;28;20096;-59
2024/02/15 16:56:30;;;;;;;10.95;6.60;;;;;;;;;;10307962;28;20030;-60
2024/02/15 17:01:30;;;;;;;11.73;6.22;;;;;;;;;;10348217;28;20037;-59
2024/02/15 17:06:31;;;;;;;12.48;5.78;;;;;;;;;;10274008;28;22799;-60
2024/02/15 17:11:32;;;;;;;11.23;6.10;;;;;;;;;;10213126;28;20045;-60
2024/02/15 17:16:37;;;;;;;11.98;5.30;;;;;;;;;;10216374;28;21775;-63
2024/02/15 17:21:43;;;;;;;9.65;5.80;;;;;;;;;;10218799;28;20021;-61
2024/02/15 17:26:45;;;;;;;13.60;5.88;;;;;;;;;;10216126;28;20124;-61
2024/02/15 17:31:50;;;;;;;10.80;5.30;;;;;;;;;;10215921;28;20348;-61
2024/02/15 17:36:51;;;;;;;10.45;5.90;;;;;;;;;;10214427;28;20574;-61
2024/02/15 17:41:53;;;;;;;10.27;5.40;;;;;;;;;;10214550;28;20120;-61
2024/02/15 17:46:54;;;;;;;7.13;5.03;;;;;;;;;;10214435;28;20025;-62
2024/02/15 17:51:55;;;;;;;8.88;5.18;;;;;;;;;;10214013;28;20037;-61
2024/02/15 17:56:56;;;;;;;7.75;4.97;;;;;;;;;;10269508;28;20033;-61
2024/02/15 18:01:57;;;;;;;7.90;4.68;;;;;;;;;;10287984;28;20030;-63
2024/02/15 18:06:57;;;;;;;7.55;5.20;;;;;;;;;;10305736;28;20044;-62
2024/02/15 18:11:58;;;;;;;6.32;4.72;;;;;;;;;;10236584;28;20025;-63
2024/02/15 18:16:58;;;;;;;7.53;4.80;;;;;;;;;;10364119;28;20026;-62
2024/02/15 18:22:00;;;;;;;8.18;4.90;;;;;;;;;;10279382;28;20038;-63
2024/02/15 18:27:01;;;;;;;7.20;4.95;;;;;;;;;;10332665;28;20236;-63
2024/02/15 18:32:01;;;;;;;8.43;5.10;;;;;;;;;;10207208;28;20033;-64
2024/02/15 18:37:02;;;;;;;5.20;4.70;;;;;;;;;;10207174;28;20046;-64
2024/02/15 18:42:05;;;;;;;7.70;4.07;;;;;;;;;;10278068;28;20041;-64
2024/02/15 18:47:06;;;;;;;7.00;5.20;;;;;;;;;;10288578;28;20122;-63
2024/02/15 18:52:06;;;;;;;5.20;4.00;;;;;;;;;;10290139;28;21762;-64
2024/02/15 18:57:08;;;;;;;7.22;4.65;;;;;;;;;;10300776;28;20026;-62
2024/02/15 19:02:11;;;;;;;6.43;4.53;;;;;;;;;;10202473;28;20045;-64
2024/02/15 19:07:13;;;;;;;7.72;4.68;;;;;;;;;;10290440;28;20029;-63
2024/02/15 19:12:13;;;;;;;6.03;4.38;;;;;;;;;;10200273;28;20040;-63
2024/02/15 19:17:14;;;;;;;10.80;4.70;;;;;;;;;;10199635;28;20033;-63
2024/02/15 19:22:14;;;;;;;9.75;4.45;;;;;;;;;;10312052;28;20084;-61
2024/02/15 19:27:15;;;;;;;5.35;4.55;;;;;;;;;;10361468;28;20022;-63
2024/02/15 19:32:17;;;;;;;7.05;4.45;;;;;;;;;;10210414;28;20037;-63
2024/02/15 19:37:17;;;;;;;6.13;4.43;;;;;;;;;;10308584;28;20041;-61
2024/02/15 19:42:18;;;;;;;5.72;4.55;;;;;;;;;;10359547;28;20038;-62
2024/02/15 19:47:20;;;;;;;12.13;4.55;;;;;;;;;;10243452;28;20117;-62
2024/02/15 19:52:22;;;;;;;5.65;4.68;;;;;;;;;;10355780;28;20076;-61
2024/02/15 19:57:22;;;;;;;8.07;4.80;;;;;;;;;;10359792;28;20065;-62
2024/02/15 20:02:23;;;;;;;7.63;4.50;;;;;;;;;;10326473;28;20041;-63
2024/02/15 20:07:28;;;;;;;4.97;4.10;;;;;;;;;;10315731;28;20033;-62
2024/02/15 20:12:28;;;;;;;7.15;4.68;;;;;;;;;;10350630;28;20034;-62
2024/02/15 20:17:29;;;;;;;8.38;5.18;;;;;;;;;;10316768;28;20033;-62
2024/02/15 20:22:30;;;;;;;8.15;4.55;;;;;;;;;;10318699;28;20054;-63
2024/02/15 20:27:32;;;;;;;8.80;5.10;;;;;;;;;;10359945;28;20383;-63
2024/02/15 20:32:33;;;;;;;7.65;4.55;;;;;;;;;;10312110;28;20030;-62
2024/02/15 20:37:34;;;;;;;7.35;4.70;;;;;;;;;;10354197;28;20077;-62
2024/02/15 20:42:37;;;;;;;8.73;5.10;;;;;;;;;;10344814;28;20498;-62
2024/02/15 20:47:38;;;;;;;7.13;4.47;;;;;;;;;;10360829;28;20033;-62
2024/02/15 20:52:39;;;;;;;10.60;4.78;;;;;;;;;;10356103;28;20508;-62
2024/02/15 20:57:40;;;;;;;8.30;5.38;;;;;;;;;;10363589;28;20474;-62
2024/02/15 21:02:41;;;;;;;8.35;4.63;;;;;;;;;;10301957;28;20516;-62
2024/02/15 21:07:42;;;;;;;7.07;4.53;;;;;;;;;;10362272;28;20022;-63
2024/02/15 21:12:42;;;;;;;7.35;4.50;;;;;;;;;;10339156;28;21032;-62
2024/02/15 21:17:44;;;;;;;6.45;4.60;;;;;;;;;;10363416;28;20037;-63
2024/02/15 21:22:57;;;;;;;7.00;4.85;;;;;;;;;;10327421;28;20076;-62
2024/02/15 21:27:58;;;;;;;5.75;4.03;;;;;;;;;;10329421;28;20041;-62
2024/02/15 21:32:58;;;;;;;7.63;4.95;;;;;;;;;;10357644;28;20038;-63
2024/02/15 21:37:59;;;;;;;9.45;4.60;;;;;;;;;;10361101;28;20053;-62
2024/02/15 21:43:00;;;;;;;6.85;4.47;;;;;;;;;;10361049;28;20029;-63
2024/02/15 21:48:00;;;;;;;10.90;5.28;;;;;;;;;;10360481;28;20445;-63
2024/02/15 21:53:01;;;;;;;8.57;4.97;;;;;;;;;;10359385;28;20041;-62
2024/02/15 21:58:03;;;;;;;6.63;4.82;;;;;;;;;;10366143;28;20038;-62
2024/02/15 22:03:04;;;;;;;7.43;5.32;;;;;;;;;;10325026;28;20398;-63
2024/02/15 22:08:06;;;;;;;6.25;4.80;;;;;;;;;;10353818;28;20112;-62
2024/02/15 22:13:08;;;;;;;7.72;5.18;;;;;;;;;;10353304;28;20032;-64
2024/02/15 22:18:12;;;;;;;8.20;5.50;;;;;;;;;;10363780;28;20069;-66
2024/02/15 22:23:12;;;;;;;7.80;5.57;;;;;;;;;;10361742;28;20046;-63
2024/02/15 22:28:16;;;;;;;11.38;5.53;;;;;;;;;;10306911;28;22320;-65
2024/02/15 22:33:16;;;;;;;8.13;5.15;;;;;;;;;;10292841;28;20428;-66
2024/02/15 22:38:17;;;;;;;7.45;5.05;;;;;;;;;;10367428;28;20049;-62
2024/02/15 22:43:19;;;;;;;11.23;5.32;;;;;;;;;;10311946;28;20137;-64
2024/02/15 22:48:20;;;;;;;8.25;5.90;;;;;;;;;;10299839;28;20096;-64
2024/02/15 22:53:20;;;;;;;8.95;5.03;;;;;;;;;;10330046;28;20176;-66
2024/02/15 22:58:22;;;;;;;11.32;5.13;;;;;;;;;;10344881;28;20038;-66
2024/02/15 23:03:23;;;;;;;7.75;5.13;;;;;;;;;;10283609;28;20025;-67
2024/02/15 23:08:23;;;;;;;7.35;4.88;;;;;;;;;;10249432;28;20033;-66
2024/02/15 23:13:24;;;;;;;6.40;5.10;;;;;;;;;;10328688;28;20635;-66
2024/02/15 23:18:26;;;;;;;7.75;5.90;;;;;;;;;;10372080;28;20436;-65
2024/02/15 23:23:26;;;;;;;8.10;5.25;;;;;;;;;;10313560;28;20156;-66
2024/02/15 23:28:27;;;;;;;8.80;5.70;;;;;;;;;;10354208;28;20026;-66
2024/02/15 23:33:28;;;;;;;12.18;5.68;;;;;;;;;;10369040;28;20038;-66
2024/02/15 23:43:48;;;;;;;8.85;5.22;;;;;;;;;;10355431;28;20037;-66
2024/02/15 23:48:48;;;;;;;7.18;5.18;;;;;;;;;;10365648;28;20038;-65
2024/02/15 23:53:49;;;;;;;13.52;6.00;;;;;;;;;;10356829;28;20079;-65
2024/02/15 23:58:50;;;;;;;7.45;5.30;;;;;;;;;;10360067;28;20038;-65
